sensor_id;sensor_type;location;lat;lon;timestamp;P1;durP1;ratioP1;P2;durP2;ratioP2
83119;SDS011;73001;51.784;4.660;2023-10-09T00:01:03;19.75;;;19.56;;
83119;SDS011;73001;51.784;4.660;2023-10-09T00:03:30;19.14;;;19.06;;
83119;SDS011;73001;51.784;4.660;2023-10-09T00:05:57;18.62;;;18.53;;
83119;SDS011;73001;51.784;4.660;2023-10-09T00:08:23;18.69;;;18.62;;
83119;SDS011;73001;51.784;4.660;2023-10-09T00:10:58;18.24;;;18.06;;
83119;SDS011;73001;51.784;4.660;2023-10-09T00:13:46;18.25;;;18.19;;
83119;SDS011;73001;51.784;4.660;2023-10-09T00:16:18;18.22;;;18.22;;
83119;SDS011;73001;51.784;4.660;2023-10-09T00:19:00;17.83;;;17.79;;
83119;SDS011;73001;51.784;4.660;2023-10-09T00:21:59;17.95;;;17.88;;
83119;SDS011;73001;51.784;4.660;2023-10-09T00:24:33;18.53;;;18.51;;
83119;SDS011;73001;51.784;4.660;2023-10-09T00:26:59;18.55;;;18.48;;
83119;SDS011;73001;51.784;4.660;2023-10-09T00:29:44;17.79;;;17.78;;
83119;SDS011;73001;51.784;4.660;2023-10-09T00:32:11;17.53;;;17.52;;
83119;SDS011;73001;51.784;4.660;2023-10-09T00:34:57;17.28;;;17.28;;
83119;SDS011;73001;51.784;4.660;2023-10-09T00:37:24;16.81;;;16.80;;
83119;SDS011;73001;51.784;4.660;2023-10-09T00:39:52;16.96;;;16.92;;
83119;SDS011;73001;51.784;4.660;2023-10-09T00:42:22;16.70;;;16.61;;
83119;SDS011;73001;51.784;4.660;2023-10-09T00:44:55;16.89;;;16.86;;
83119;SDS011;73001;51.784;4.660;2023-10-09T00:47:21;16.52;;;16.43;;
83119;SDS011;73001;51.784;4.660;2023-10-09T00:52:52;16.38;;;16.35;;
83119;SDS011;73001;51.784;4.660;2023-10-09T00:55:31;14.19;;;14.11;;
83119;SDS011;73001;51.784;4.660;2023-10-09T00:58:03;14.15;;;14.15;;
83119;SDS011;73001;51.784;4.660;2023-10-09T01:00:35;14.10;;;14.09;;
83119;SDS011;73001;51.784;4.660;2023-10-09T01:03:10;13.26;;;13.25;;
83119;SDS011;73001;51.784;4.660;2023-10-09T01:06:04;12.81;;;12.81;;
83119;SDS011;73001;51.784;4.660;2023-10-09T01:08:34;13.71;;;13.70;;
83119;SDS011;73001;51.784;4.660;2023-10-09T01:11:00;12.02;;;12.00;;
83119;SDS011;73001;51.784;4.660;2023-10-09T01:13:38;12.19;;;12.18;;
83119;SDS011;73001;51.784;4.660;2023-10-09T01:16:11;11.49;;;11.44;;
83119;SDS011;73001;51.784;4.660;2023-10-09T01:18:41;11.37;;;11.31;;
83119;SDS011;73001;51.784;4.660;2023-10-09T01:21:10;11.96;;;11.94;;
83119;SDS011;73001;51.784;4.660;2023-10-09T01:23:43;11.50;;;11.47;;
83119;SDS011;73001;51.784;4.660;2023-10-09T01:26:30;10.95;;;10.94;;
83119;SDS011;73001;51.784;4.660;2023-10-09T01:28:59;11.22;;;11.22;;
83119;SDS011;73001;51.784;4.660;2023-10-09T01:31:26;11.26;;;11.25;;
83119;SDS011;73001;51.784;4.660;2023-10-09T01:33:52;11.13;;;11.09;;
83119;SDS011;73001;51.784;4.660;2023-10-09T01:36:19;11.26;;;11.21;;
83119;SDS011;73001;51.784;4.660;2023-10-09T01:38:58;10.75;;;10.69;;
83119;SDS011;73001;51.784;4.660;2023-10-09T01:41:36;11.49;;;11.42;;
83119;SDS011;73001;51.784;4.660;2023-10-09T01:44:11;10.93;;;10.89;;
83119;SDS011;73001;51.784;4.660;2023-10-09T01:46:36;10.69;;;10.63;;
83119;SDS011;73001;51.784;4.660;2023-10-09T01:49:02;11.22;;;11.13;;
83119;SDS011;73001;51.784;4.660;2023-10-09T01:51:34;11.30;;;11.25;;
83119;SDS011;73001;51.784;4.660;2023-10-09T01:54:02;11.59;;;11.52;;
83119;SDS011;73001;51.784;4.660;2023-10-09T01:56:28;11.04;;;10.99;;
83119;SDS011;73001;51.784;4.660;2023-10-09T01:58:53;10.84;;;10.79;;
83119;SDS011;73001;51.784;4.660;2023-10-09T02:01:22;11.37;;;11.28;;
83119;SDS011;73001;51.784;4.660;2023-10-09T02:03:49;11.27;;;11.18;;
83119;SDS011;73001;51.784;4.660;2023-10-09T02:06:17;11.21;;;11.09;;
83119;SDS011;73001;51.784;4.660;2023-10-09T02:08:54;11.19;;;11.13;;
83119;SDS011;73001;51.784;4.660;2023-10-09T02:11:21;11.27;;;11.15;;
83119;SDS011;73001;51.784;4.660;2023-10-09T02:14:02;10.26;;;10.22;;
83119;SDS011;73001;51.784;4.660;2023-10-09T02:16:31;10.87;;;10.81;;
83119;SDS011;73001;51.784;4.660;2023-10-09T02:19:07;10.57;;;10.55;;
83119;SDS011;73001;51.784;4.660;2023-10-09T02:21:54;10.31;;;10.27;;
83119;SDS011;73001;51.784;4.660;2023-10-09T02:24:22;10.54;;;10.50;;
83119;SDS011;73001;51.784;4.660;2023-10-09T02:27:15;10.52;;;10.42;;
83119;SDS011;73001;51.784;4.660;2023-10-09T02:29:59;9.86;;;9.84;;
83119;SDS011;73001;51.784;4.660;2023-10-09T02:32:33;10.32;;;10.29;;
83119;SDS011;73001;51.784;4.660;2023-10-09T02:35:00;9.76;;;9.69;;
83119;SDS011;73001;51.784;4.660;2023-10-09T02:37:34;9.13;;;9.10;;
83119;SDS011;73001;51.784;4.660;2023-10-09T02:40:03;9.16;;;9.10;;
83119;SDS011;73001;51.784;4.660;2023-10-09T02:42:34;8.81;;;8.79;;
83119;SDS011;73001;51.784;4.660;2023-10-09T02:44:59;8.99;;;8.96;;
83119;SDS011;73001;51.784;4.660;2023-10-09T02:47:28;8.42;;;8.40;;
83119;SDS011;73001;51.784;4.660;2023-10-09T02:50:03;8.61;;;8.53;;
83119;SDS011;73001;51.784;4.660;2023-10-09T02:52:34;8.53;;;8.44;;
83119;SDS011;73001;51.784;4.660;2023-10-09T02:55:06;9.10;;;9.06;;
83119;SDS011;73001;51.784;4.660;2023-10-09T02:57:37;9.60;;;9.56;;
83119;SDS011;73001;51.784;4.660;2023-10-09T03:00:06;9.85;;;9.80;;
83119;SDS011;73001;51.784;4.660;2023-10-09T03:02:44;10.60;;;10.57;;
83119;SDS011;73001;51.784;4.660;2023-10-09T03:05:14;10.57;;;10.49;;
83119;SDS011;73001;51.784;4.660;2023-10-09T03:07:40;10.17;;;10.15;;
83119;SDS011;73001;51.784;4.660;2023-10-09T03:10:06;10.59;;;10.55;;
83119;SDS011;73001;51.784;4.660;2023-10-09T03:12:34;11.15;;;11.14;;
83119;SDS011;73001;51.784;4.660;2023-10-09T03:15:02;11.48;;;11.43;;
83119;SDS011;73001;51.784;4.660;2023-10-09T03:17:31;11.94;;;11.90;;
83119;SDS011;73001;51.784;4.660;2023-10-09T03:20:02;11.22;;;11.14;;
83119;SDS011;73001;51.784;4.660;2023-10-09T03:22:40;11.59;;;11.48;;
83119;SDS011;73001;51.784;4.660;2023-10-09T03:25:07;12.32;;;12.20;;
83119;SDS011;73001;51.784;4.660;2023-10-09T03:27:39;12.64;;;12.55;;
83119;SDS011;73001;51.784;4.660;2023-10-09T03:30:11;12.81;;;12.74;;
83119;SDS011;73001;51.784;4.660;2023-10-09T03:32:42;12.85;;;12.82;;
83119;SDS011;73001;51.784;4.660;2023-10-09T03:35:08;13.41;;;13.35;;
83119;SDS011;73001;51.784;4.660;2023-10-09T03:37:39;12.49;;;12.42;;
83119;SDS011;73001;51.784;4.660;2023-10-09T03:40:04;13.02;;;12.95;;
83119;SDS011;73001;51.784;4.660;2023-10-09T03:42:32;12.48;;;12.39;;
83119;SDS011;73001;51.784;4.660;2023-10-09T03:45:01;12.14;;;12.04;;
83119;SDS011;73001;51.784;4.660;2023-10-09T03:47:31;11.25;;;11.24;;
83119;SDS011;73001;51.784;4.660;2023-10-09T03:49:56;11.27;;;11.24;;
83119;SDS011;73001;51.784;4.660;2023-10-09T03:52:22;12.14;;;12.04;;
83119;SDS011;73001;51.784;4.660;2023-10-09T03:54:50;12.11;;;12.06;;
83119;SDS011;73001;51.784;4.660;2023-10-09T03:57:16;13.28;;;13.21;;
83119;SDS011;73001;51.784;4.660;2023-10-09T03:59:45;13.39;;;13.31;;
83119;SDS011;73001;51.784;4.660;2023-10-09T04:02:12;12.57;;;12.48;;
83119;SDS011;73001;51.784;4.660;2023-10-09T04:04:38;12.32;;;12.25;;
83119;SDS011;73001;51.784;4.660;2023-10-09T04:07:04;12.02;;;11.97;;
83119;SDS011;73001;51.784;4.660;2023-10-09T04:09:31;12.62;;;12.60;;
83119;SDS011;73001;51.784;4.660;2023-10-09T04:12:05;12.05;;;12.03;;
83119;SDS011;73001;51.784;4.660;2023-10-09T04:14:37;12.02;;;11.91;;
83119;SDS011;73001;51.784;4.660;2023-10-09T04:17:13;12.57;;;12.45;;
83119;SDS011;73001;51.784;4.660;2023-10-09T04:19:57;12.34;;;12.18;;
83119;SDS011;73001;51.784;4.660;2023-10-09T04:22:40;12.44;;;12.31;;
83119;SDS011;73001;51.784;4.660;2023-10-09T04:25:25;12.30;;;12.26;;
83119;SDS011;73001;51.784;4.660;2023-10-09T04:27:58;11.97;;;11.93;;
83119;SDS011;73001;51.784;4.660;2023-10-09T04:30:38;12.30;;;12.25;;
83119;SDS011;73001;51.784;4.660;2023-10-09T04:33:14;12.49;;;12.42;;
83119;SDS011;73001;51.784;4.660;2023-10-09T04:36:05;11.95;;;11.85;;
83119;SDS011;73001;51.784;4.660;2023-10-09T04:38:44;13.73;;;13.59;;
83119;SDS011;73001;51.784;4.660;2023-10-09T04:41:27;12.70;;;12.45;;
83119;SDS011;73001;51.784;4.660;2023-10-09T04:43:54;12.35;;;12.28;;
83119;SDS011;73001;51.784;4.660;2023-10-09T04:46:40;13.16;;;13.02;;
83119;SDS011;73001;51.784;4.660;2023-10-09T04:49:35;12.46;;;12.40;;
83119;SDS011;73001;51.784;4.660;2023-10-09T04:52:31;13.65;;;13.60;;
83119;SDS011;73001;51.784;4.660;2023-10-09T04:54:57;13.53;;;13.49;;
83119;SDS011;73001;51.784;4.660;2023-10-09T04:57:31;13.71;;;13.68;;
83119;SDS011;73001;51.784;4.660;2023-10-09T05:02:57;13.77;;;13.69;;
83119;SDS011;73001;51.784;4.660;2023-10-09T05:05:36;13.87;;;13.83;;
83119;SDS011;73001;51.784;4.660;2023-10-09T05:08:06;13.84;;;13.77;;
83119;SDS011;73001;51.784;4.660;2023-10-09T05:10:53;13.76;;;13.74;;
83119;SDS011;73001;51.784;4.660;2023-10-09T05:18:38;14.28;;;14.22;;
83119;SDS011;73001;51.784;4.660;2023-10-09T05:21:04;14.80;;;14.63;;
83119;SDS011;73001;51.784;4.660;2023-10-09T05:23:49;15.05;;;15.05;;
83119;SDS011;73001;51.784;4.660;2023-10-09T05:26:34;15.00;;;14.96;;
83119;SDS011;73001;51.784;4.660;2023-10-09T05:29:19;14.61;;;14.60;;
83119;SDS011;73001;51.784;4.660;2023-10-09T05:32:01;14.22;;;14.13;;
83119;SDS011;73001;51.784;4.660;2023-10-09T05:34:40;14.00;;;13.91;;
83119;SDS011;73001;51.784;4.660;2023-10-09T05:37:25;14.20;;;14.18;;
83119;SDS011;73001;51.784;4.660;2023-10-09T05:40:04;13.43;;;13.37;;
83119;SDS011;73001;51.784;4.660;2023-10-09T05:42:48;13.96;;;13.86;;
83119;SDS011;73001;51.784;4.660;2023-10-09T05:45:24;12.99;;;12.98;;
83119;SDS011;73001;51.784;4.660;2023-10-09T05:48:10;13.06;;;13.00;;
83119;SDS011;73001;51.784;4.660;2023-10-09T05:50:38;12.65;;;12.60;;
83119;SDS011;73001;51.784;4.660;2023-10-09T05:53:24;13.11;;;13.08;;
83119;SDS011;73001;51.784;4.660;2023-10-09T05:56:08;12.54;;;12.53;;
83119;SDS011;73001;51.784;4.660;2023-10-09T05:58:52;12.38;;;12.35;;
83119;SDS011;73001;51.784;4.660;2023-10-09T06:01:36;12.70;;;12.69;;
83119;SDS011;73001;51.784;4.660;2023-10-09T06:04:20;11.79;;;11.79;;
83119;SDS011;73001;51.784;4.660;2023-10-09T06:06:45;12.73;;;12.66;;
83119;SDS011;73001;51.784;4.660;2023-10-09T06:09:14;12.03;;;12.00;;
83119;SDS011;73001;51.784;4.660;2023-10-09T06:11:44;11.96;;;11.94;;
83119;SDS011;73001;51.784;4.660;2023-10-09T06:14:15;12.67;;;12.58;;
83119;SDS011;73001;51.784;4.660;2023-10-09T06:16:55;12.86;;;12.73;;
83119;SDS011;73001;51.784;4.660;2023-10-09T06:19:23;12.57;;;12.55;;
83119;SDS011;73001;51.784;4.660;2023-10-09T06:21:57;11.95;;;11.94;;
83119;SDS011;73001;51.784;4.660;2023-10-09T06:24:37;12.05;;;12.04;;
83119;SDS011;73001;51.784;4.660;2023-10-09T06:27:20;11.79;;;11.78;;
83119;SDS011;73001;51.784;4.660;2023-10-09T06:29:56;11.77;;;11.73;;
83119;SDS011;73001;51.784;4.660;2023-10-09T06:32:41;11.98;;;11.87;;
83119;SDS011;73001;51.784;4.660;2023-10-09T06:35:23;11.58;;;11.54;;
83119;SDS011;73001;51.784;4.660;2023-10-09T06:37:58;10.56;;;10.56;;
83119;SDS011;73001;51.784;4.660;2023-10-09T06:43:02;10.22;;;10.17;;
83119;SDS011;73001;51.784;4.660;2023-10-09T06:45:46;10.35;;;10.33;;
83119;SDS011;73001;51.784;4.660;2023-10-09T06:48:34;10.59;;;10.56;;
83119;SDS011;73001;51.784;4.660;2023-10-09T06:51:03;10.51;;;10.46;;
83119;SDS011;73001;51.784;4.660;2023-10-09T06:53:48;11.28;;;11.22;;
83119;SDS011;73001;51.784;4.660;2023-10-09T06:56:20;10.92;;;10.87;;
83119;SDS011;73001;51.784;4.660;2023-10-09T06:58:50;11.04;;;11.01;;
83119;SDS011;73001;51.784;4.660;2023-10-09T07:01:19;9.98;;;9.96;;
83119;SDS011;73001;51.784;4.660;2023-10-09T07:03:56;9.66;;;9.62;;
83119;SDS011;73001;51.784;4.660;2023-10-09T07:06:35;9.86;;;9.77;;
83119;SDS011;73001;51.784;4.660;2023-10-09T07:09:01;9.93;;;9.88;;
83119;SDS011;73001;51.784;4.660;2023-10-09T07:11:33;9.44;;;9.42;;
83119;SDS011;73001;51.784;4.660;2023-10-09T07:14:08;9.41;;;9.40;;
83119;SDS011;73001;51.784;4.660;2023-10-09T07:17:09;9.32;;;9.32;;
83119;SDS011;73001;51.784;4.660;2023-10-09T07:19:50;9.72;;;9.70;;
83119;SDS011;73001;51.784;4.660;2023-10-09T07:22:16;10.52;;;10.50;;
83119;SDS011;73001;51.784;4.660;2023-10-09T07:24:46;9.28;;;9.25;;
83119;SDS011;73001;51.784;4.660;2023-10-09T07:27:29;9.84;;;9.77;;
83119;SDS011;73001;51.784;4.660;2023-10-09T07:32:56;11.10;;;11.03;;
83119;SDS011;73001;51.784;4.660;2023-10-09T07:35:48;11.18;;;11.09;;
83119;SDS011;73001;51.784;4.660;2023-10-09T07:38:20;10.67;;;10.61;;
83119;SDS011;73001;51.784;4.660;2023-10-09T07:40:53;10.21;;;10.18;;
83119;SDS011;73001;51.784;4.660;2023-10-09T07:43:33;11.35;;;11.32;;
83119;SDS011;73001;51.784;4.660;2023-10-09T07:46:09;11.77;;;11.71;;
83119;SDS011;73001;51.784;4.660;2023-10-09T07:48:55;13.31;;;13.24;;
83119;SDS011;73001;51.784;4.660;2023-10-09T07:51:21;13.26;;;13.20;;
83119;SDS011;73001;51.784;4.660;2023-10-09T07:53:51;13.68;;;13.61;;
83119;SDS011;73001;51.784;4.660;2023-10-09T07:56:32;13.28;;;13.21;;
83119;SDS011;73001;51.784;4.660;2023-10-09T07:59:08;12.07;;;12.01;;
83119;SDS011;73001;51.784;4.660;2023-10-09T08:01:40;12.68;;;12.63;;
83119;SDS011;73001;51.784;4.660;2023-10-09T08:04:28;12.55;;;12.44;;
83119;SDS011;73001;51.784;4.660;2023-10-09T08:07:04;11.50;;;11.42;;
83119;SDS011;73001;51.784;4.660;2023-10-09T08:09:34;11.04;;;10.97;;
83119;SDS011;73001;51.784;4.660;2023-10-09T08:12:32;11.93;;;11.91;;
83119;SDS011;73001;51.784;4.660;2023-10-09T08:15:23;12.19;;;12.10;;
83119;SDS011;73001;51.784;4.660;2023-10-09T08:17:59;12.51;;;12.42;;
83119;SDS011;73001;51.784;4.660;2023-10-09T08:20:43;12.94;;;12.91;;
83119;SDS011;73001;51.784;4.660;2023-10-09T08:23:27;12.67;;;12.62;;
83119;SDS011;73001;51.784;4.660;2023-10-09T08:26:13;12.91;;;12.90;;
83119;SDS011;73001;51.784;4.660;2023-10-09T08:28:43;13.48;;;13.43;;
83119;SDS011;73001;51.784;4.660;2023-10-09T08:31:13;13.44;;;13.38;;
83119;SDS011;73001;51.784;4.660;2023-10-09T08:33:58;12.84;;;12.82;;
83119;SDS011;73001;51.784;4.660;2023-10-09T08:36:27;12.56;;;12.55;;
83119;SDS011;73001;51.784;4.660;2023-10-09T08:38:55;12.78;;;12.78;;
83119;SDS011;73001;51.784;4.660;2023-10-09T08:41:24;12.66;;;12.61;;
83119;SDS011;73001;51.784;4.660;2023-10-09T08:43:55;13.24;;;13.20;;
83119;SDS011;73001;51.784;4.660;2023-10-09T08:46:23;12.78;;;12.72;;
83119;SDS011;73001;51.784;4.660;2023-10-09T08:48:52;13.21;;;13.15;;
83119;SDS011;73001;51.784;4.660;2023-10-09T08:51:19;12.18;;;12.07;;
83119;SDS011;73001;51.784;4.660;2023-10-09T08:53:46;11.58;;;11.48;;
83119;SDS011;73001;51.784;4.660;2023-10-09T08:56:16;11.48;;;11.45;;
83119;SDS011;73001;51.784;4.660;2023-10-09T08:58:49;11.14;;;11.10;;
83119;SDS011;73001;51.784;4.660;2023-10-09T09:01:21;10.83;;;10.76;;
83119;SDS011;73001;51.784;4.660;2023-10-09T09:03:50;10.61;;;10.52;;
83119;SDS011;73001;51.784;4.660;2023-10-09T09:06:19;11.45;;;11.42;;
83119;SDS011;73001;51.784;4.660;2023-10-09T09:08:46;11.13;;;11.11;;
83119;SDS011;73001;51.784;4.660;2023-10-09T09:11:12;10.91;;;10.91;;
83119;SDS011;73001;51.784;4.660;2023-10-09T09:13:42;10.36;;;10.36;;
83119;SDS011;73001;51.784;4.660;2023-10-09T09:16:21;10.16;;;10.13;;
83119;SDS011;73001;51.784;4.660;2023-10-09T09:18:56;10.02;;;10.00;;
83119;SDS011;73001;51.784;4.660;2023-10-09T09:21:37;10.02;;;9.97;;
83119;SDS011;73001;51.784;4.660;2023-10-09T09:24:07;10.02;;;9.96;;
83119;SDS011;73001;51.784;4.660;2023-10-09T09:26:40;10.02;;;9.96;;
83119;SDS011;73001;51.784;4.660;2023-10-09T09:29:12;10.04;;;10.03;;
83119;SDS011;73001;51.784;4.660;2023-10-09T09:31:51;9.75;;;9.74;;
83119;SDS011;73001;51.784;4.660;2023-10-09T09:34:17;8.99;;;8.97;;
83119;SDS011;73001;51.784;4.660;2023-10-09T09:36:50;8.97;;;8.95;;
83119;SDS011;73001;51.784;4.660;2023-10-09T09:39:22;8.72;;;8.70;;
83119;SDS011;73001;51.784;4.660;2023-10-09T09:41:55;8.76;;;8.75;;
83119;SDS011;73001;51.784;4.660;2023-10-09T09:44:30;8.13;;;8.11;;
83119;SDS011;73001;51.784;4.660;2023-10-09T09:47:00;8.29;;;8.27;;
83119;SDS011;73001;51.784;4.660;2023-10-09T09:49:29;8.28;;;8.24;;
83119;SDS011;73001;51.784;4.660;2023-10-09T09:52:02;8.34;;;8.31;;
83119;SDS011;73001;51.784;4.660;2023-10-09T09:54:35;8.02;;;7.98;;
83119;SDS011;73001;51.784;4.660;2023-10-09T09:57:04;8.11;;;8.10;;
83119;SDS011;73001;51.784;4.660;2023-10-09T09:59:37;8.23;;;8.22;;
83119;SDS011;73001;51.784;4.660;2023-10-09T10:02:16;7.99;;;7.98;;
83119;SDS011;73001;51.784;4.660;2023-10-09T10:04:48;8.10;;;8.04;;
83119;SDS011;73001;51.784;4.660;2023-10-09T10:07:20;7.53;;;7.50;;
83119;SDS011;73001;51.784;4.660;2023-10-09T10:09:50;7.50;;;7.48;;
83119;SDS011;73001;51.784;4.660;2023-10-09T10:13:05;7.51;;;7.51;;
83119;SDS011;73001;51.784;4.660;2023-10-09T10:15:40;7.37;;;7.37;;
83119;SDS011;73001;51.784;4.660;2023-10-09T10:21:28;7.08;;;7.06;;
83119;SDS011;73001;51.784;4.660;2023-10-09T10:24:00;7.25;;;7.19;;
83119;SDS011;73001;51.784;4.660;2023-10-09T10:26:35;7.59;;;7.58;;
83119;SDS011;73001;51.784;4.660;2023-10-09T10:31:52;7.24;;;7.18;;
83119;SDS011;73001;51.784;4.660;2023-10-09T10:34:23;7.10;;;7.06;;
83119;SDS011;73001;51.784;4.660;2023-10-09T10:36:49;6.93;;;6.88;;
83119;SDS011;73001;51.784;4.660;2023-10-09T10:39:17;7.57;;;7.53;;
83119;SDS011;73001;51.784;4.660;2023-10-09T10:41:52;7.53;;;7.53;;
83119;SDS011;73001;51.784;4.660;2023-10-09T10:44:24;7.33;;;7.32;;
83119;SDS011;73001;51.784;4.660;2023-10-09T10:47:06;7.37;;;7.34;;
83119;SDS011;73001;51.784;4.660;2023-10-09T10:49:53;7.04;;;7.01;;
83119;SDS011;73001;51.784;4.660;2023-10-09T10:52:46;7.11;;;7.07;;
83119;SDS011;73001;51.784;4.660;2023-10-09T10:55:22;7.20;;;7.17;;
83119;SDS011;73001;51.784;4.660;2023-10-09T10:58:00;7.04;;;7.03;;
83119;SDS011;73001;51.784;4.660;2023-10-09T11:00:27;6.94;;;6.94;;
83119;SDS011;73001;51.784;4.660;2023-10-09T11:03:19;7.16;;;7.15;;
83119;SDS011;73001;51.784;4.660;2023-10-09T11:05:56;6.83;;;6.83;;
83119;SDS011;73001;51.784;4.660;2023-10-09T11:08:46;6.94;;;6.93;;
83119;SDS011;73001;51.784;4.660;2023-10-09T11:11:19;7.06;;;7.05;;
83119;SDS011;73001;51.784;4.660;2023-10-09T11:13:45;6.67;;;6.66;;
83119;SDS011;73001;51.784;4.660;2023-10-09T11:16:24;6.64;;;6.62;;
83119;SDS011;73001;51.784;4.660;2023-10-09T11:18:59;6.55;;;6.53;;
83119;SDS011;73001;51.784;4.660;2023-10-09T11:21:37;6.74;;;6.72;;
83119;SDS011;73001;51.784;4.660;2023-10-09T11:24:07;6.84;;;6.83;;
83119;SDS011;73001;51.784;4.660;2023-10-09T11:26:50;6.85;;;6.83;;
83119;SDS011;73001;51.784;4.660;2023-10-09T11:29:29;6.63;;;6.60;;
83119;SDS011;73001;51.784;4.660;2023-10-09T11:32:16;7.04;;;7.03;;
83119;SDS011;73001;51.784;4.660;2023-10-09T11:34:49;6.54;;;6.54;;
83119;SDS011;73001;51.784;4.660;2023-10-09T11:37:17;6.35;;;6.35;;
83119;SDS011;73001;51.784;4.660;2023-10-09T11:40:04;6.78;;;6.78;;
83119;SDS011;73001;51.784;4.660;2023-10-09T11:42:48;6.80;;;6.80;;
83119;SDS011;73001;51.784;4.660;2023-10-09T11:45:21;6.48;;;6.47;;
83119;SDS011;73001;51.784;4.660;2023-10-09T11:47:55;6.32;;;6.32;;
83119;SDS011;73001;51.784;4.660;2023-10-09T11:53:18;6.70;;;6.69;;
83119;SDS011;73001;51.784;4.660;2023-10-09T11:55:58;6.81;;;6.78;;
83119;SDS011;73001;51.784;4.660;2023-10-09T11:58:25;6.55;;;6.54;;
83119;SDS011;73001;51.784;4.660;2023-10-09T12:00:51;6.82;;;6.81;;
83119;SDS011;73001;51.784;4.660;2023-10-09T12:03:22;6.74;;;6.73;;
83119;SDS011;73001;51.784;4.660;2023-10-09T12:05:53;6.89;;;6.86;;
83119;SDS011;73001;51.784;4.660;2023-10-09T12:08:37;7.29;;;7.26;;
83119;SDS011;73001;51.784;4.660;2023-10-09T12:11:06;6.92;;;6.89;;
83119;SDS011;73001;51.784;4.660;2023-10-09T12:13:39;6.61;;;6.57;;
83119;SDS011;73001;51.784;4.660;2023-10-09T12:16:08;7.13;;;7.09;;
83119;SDS011;73001;51.784;4.660;2023-10-09T12:18:36;6.85;;;6.81;;
83119;SDS011;73001;51.784;4.660;2023-10-09T12:21:04;7.33;;;7.27;;
83119;SDS011;73001;51.784;4.660;2023-10-09T12:23:31;6.82;;;6.77;;
83119;SDS011;73001;51.784;4.660;2023-10-09T12:26:01;6.88;;;6.84;;
83119;SDS011;73001;51.784;4.660;2023-10-09T12:28:27;7.07;;;7.01;;
83119;SDS011;73001;51.784;4.660;2023-10-09T12:30:53;7.57;;;7.51;;
83119;SDS011;73001;51.784;4.660;2023-10-09T12:33:19;7.12;;;7.11;;
83119;SDS011;73001;51.784;4.660;2023-10-09T12:35:52;6.98;;;6.93;;
83119;SDS011;73001;51.784;4.660;2023-10-09T12:38:25;6.41;;;6.33;;
83119;SDS011;73001;51.784;4.660;2023-10-09T12:41:03;6.38;;;6.31;;
83119;SDS011;73001;51.784;4.660;2023-10-09T12:43:45;6.66;;;6.61;;
83119;SDS011;73001;51.784;4.660;2023-10-09T12:46:11;6.71;;;6.68;;
83119;SDS011;73001;51.784;4.660;2023-10-09T12:48:42;6.75;;;6.70;;
83119;SDS011;73001;51.784;4.660;2023-10-09T12:51:13;6.21;;;6.17;;
83119;SDS011;73001;51.784;4.660;2023-10-09T12:53:45;6.79;;;6.70;;
83119;SDS011;73001;51.784;4.660;2023-10-09T12:56:14;7.08;;;6.97;;
83119;SDS011;73001;51.784;4.660;2023-10-09T12:58:41;6.58;;;6.56;;
83119;SDS011;73001;51.784;4.660;2023-10-09T13:01:19;6.85;;;6.78;;
83119;SDS011;73001;51.784;4.660;2023-10-09T13:03:45;6.79;;;6.74;;
83119;SDS011;73001;51.784;4.660;2023-10-09T13:06:14;6.78;;;6.75;;
83119;SDS011;73001;51.784;4.660;2023-10-09T13:08:40;6.70;;;6.65;;
83119;SDS011;73001;51.784;4.660;2023-10-09T13:11:10;6.27;;;6.25;;
83119;SDS011;73001;51.784;4.660;2023-10-09T13:13:40;6.58;;;6.58;;
83119;SDS011;73001;51.784;4.660;2023-10-09T13:16:16;6.24;;;6.23;;
83119;SDS011;73001;51.784;4.660;2023-10-09T13:18:48;6.72;;;6.68;;
83119;SDS011;73001;51.784;4.660;2023-10-09T13:21:18;6.57;;;6.47;;
83119;SDS011;73001;51.784;4.660;2023-10-09T13:23:44;6.48;;;6.43;;
83119;SDS011;73001;51.784;4.660;2023-10-09T13:26:15;6.28;;;6.25;;
83119;SDS011;73001;51.784;4.660;2023-10-09T13:28:50;5.90;;;5.88;;
83119;SDS011;73001;51.784;4.660;2023-10-09T13:31:17;6.41;;;6.38;;
83119;SDS011;73001;51.784;4.660;2023-10-09T13:33:46;5.91;;;5.83;;
83119;SDS011;73001;51.784;4.660;2023-10-09T13:36:13;6.13;;;6.03;;
83119;SDS011;73001;51.784;4.660;2023-10-09T13:38:56;6.01;;;5.95;;
83119;SDS011;73001;51.784;4.660;2023-10-09T13:41:45;6.47;;;6.45;;
83119;SDS011;73001;51.784;4.660;2023-10-09T13:44:11;6.42;;;6.40;;
83119;SDS011;73001;51.784;4.660;2023-10-09T13:46:36;6.25;;;6.18;;
83119;SDS011;73001;51.784;4.660;2023-10-09T13:49:09;6.30;;;6.23;;
83119;SDS011;73001;51.784;4.660;2023-10-09T13:51:39;6.59;;;6.53;;
83119;SDS011;73001;51.784;4.660;2023-10-09T13:54:11;6.13;;;6.11;;
83119;SDS011;73001;51.784;4.660;2023-10-09T13:56:48;6.03;;;6.02;;
83119;SDS011;73001;51.784;4.660;2023-10-09T13:59:18;6.41;;;6.38;;
83119;SDS011;73001;51.784;4.660;2023-10-09T14:01:46;6.62;;;6.57;;
83119;SDS011;73001;51.784;4.660;2023-10-09T14:04:13;6.50;;;6.41;;
83119;SDS011;73001;51.784;4.660;2023-10-09T14:06:43;6.85;;;6.75;;
83119;SDS011;73001;51.784;4.660;2023-10-09T14:09:10;6.80;;;6.73;;
83119;SDS011;73001;51.784;4.660;2023-10-09T14:11:55;6.14;;;6.10;;
83119;SDS011;73001;51.784;4.660;2023-10-09T14:17:15;6.40;;;6.37;;
83119;SDS011;73001;51.784;4.660;2023-10-09T14:19:54;6.64;;;6.56;;
83119;SDS011;73001;51.784;4.660;2023-10-09T14:22:26;6.92;;;6.86;;
83119;SDS011;73001;51.784;4.660;2023-10-09T14:24:52;7.21;;;7.13;;
83119;SDS011;73001;51.784;4.660;2023-10-09T14:27:22;6.65;;;6.62;;
83119;SDS011;73001;51.784;4.660;2023-10-09T14:29:54;6.95;;;6.91;;
83119;SDS011;73001;51.784;4.660;2023-10-09T14:32:22;6.88;;;6.85;;
83119;SDS011;73001;51.784;4.660;2023-10-09T14:34:54;6.74;;;6.66;;
83119;SDS011;73001;51.784;4.660;2023-10-09T14:37:26;6.95;;;6.86;;
83119;SDS011;73001;51.784;4.660;2023-10-09T14:39:52;6.53;;;6.49;;
83119;SDS011;73001;51.784;4.660;2023-10-09T14:42:19;6.95;;;6.89;;
83119;SDS011;73001;51.784;4.660;2023-10-09T14:44:48;7.11;;;7.06;;
83119;SDS011;73001;51.784;4.660;2023-10-09T14:47:15;6.60;;;6.58;;
83119;SDS011;73001;51.784;4.660;2023-10-09T14:49:41;6.51;;;6.47;;
83119;SDS011;73001;51.784;4.660;2023-10-09T14:52:11;7.03;;;6.97;;
83119;SDS011;73001;51.784;4.660;2023-10-09T14:54:42;6.88;;;6.84;;
83119;SDS011;73001;51.784;4.660;2023-10-09T14:57:10;6.86;;;6.83;;
83119;SDS011;73001;51.784;4.660;2023-10-09T14:59:36;6.89;;;6.88;;
83119;SDS011;73001;51.784;4.660;2023-10-09T15:02:02;7.03;;;7.01;;
83119;SDS011;73001;51.784;4.660;2023-10-09T15:04:30;7.45;;;7.41;;
83119;SDS011;73001;51.784;4.660;2023-10-09T15:06:56;7.26;;;7.15;;
83119;SDS011;73001;51.784;4.660;2023-10-09T15:09:22;7.37;;;7.30;;
83119;SDS011;73001;51.784;4.660;2023-10-09T15:11:53;7.16;;;7.12;;
83119;SDS011;73001;51.784;4.660;2023-10-09T15:14:19;6.76;;;6.75;;
83119;SDS011;73001;51.784;4.660;2023-10-09T15:16:46;6.87;;;6.86;;
83119;SDS011;73001;51.784;4.660;2023-10-09T15:19:13;7.19;;;7.16;;
83119;SDS011;73001;51.784;4.660;2023-10-09T15:21:39;7.08;;;7.03;;
83119;SDS011;73001;51.784;4.660;2023-10-09T15:24:11;7.10;;;7.07;;
83119;SDS011;73001;51.784;4.660;2023-10-09T15:26:41;7.01;;;6.95;;
83119;SDS011;73001;51.784;4.660;2023-10-09T15:29:07;6.70;;;6.66;;
83119;SDS011;73001;51.784;4.660;2023-10-09T15:31:35;6.88;;;6.84;;
83119;SDS011;73001;51.784;4.660;2023-10-09T15:34:01;7.22;;;7.12;;
83119;SDS011;73001;51.784;4.660;2023-10-09T15:36:27;6.78;;;6.72;;
83119;SDS011;73001;51.784;4.660;2023-10-09T15:38:56;6.94;;;6.90;;